sensor_id;sensor_type;location;lat;lon;timestamp;temperature;humidity
15355;DHT22;7777;52.254;9.618;2022-12-20T00:00:05;7.00;99.90
15355;DHT22;7777;52.254;9.618;2022-12-20T00:02:31;7.10;99.90
15355;DHT22;7777;52.254;9.618;2022-12-20T00:04:56;7.10;99.90
15355;DHT22;7777;52.254;9.618;2022-12-20T00:07:22;7.00;99.90
15355;DHT22;7777;52.254;9.618;2022-12-20T00:09:48;7.00;99.90
15355;DHT22;7777;52.254;9.618;2022-12-20T00:12:13;7.00;99.90
15355;DHT22;7777;52.254;9.618;2022-12-20T00:14:39;7.00;99.90
15355;DHT22;7777;52.254;9.618;2022-12-20T00:17:05;7.00;99.90
15355;DHT22;7777;52.254;9.618;2022-12-20T00:19:31;7.00;99.90
15355;DHT22;7777;52.254;9.618;2022-12-20T00:21:56;7.00;99.90
15355;DHT22;7777;52.254;9.618;2022-12-20T00:24:22;7.00;99.90
15355;DHT22;7777;52.254;9.618;2022-12-20T00:26:48;7.00;99.90
15355;DHT22;7777;52.254;9.618;2022-12-20T00:29:14;7.00;99.90
15355;DHT22;7777;52.254;9.618;2022-12-20T00:31:40;7.00;99.90
15355;DHT22;7777;52.254;9.618;2022-12-20T00:34:05;6.90;99.90
15355;DHT22;7777;52.254;9.618;2022-12-20T00:36:32;6.90;99.90
15355;DHT22;7777;52.254;9.618;2022-12-20T00:38:59;7.00;99.90
15355;DHT22;7777;52.254;9.618;2022-12-20T00:41:27;7.00;99.90
15355;DHT22;7777;52.254;9.618;2022-12-20T00:43:57;7.00;99.90
15355;DHT22;7777;52.254;9.618;2022-12-20T00:46:23;7.00;99.90
15355;DHT22;7777;52.254;9.618;2022-12-20T00:48:50;7.00;99.90
15355;DHT22;7777;52.254;9.618;2022-12-20T00:51:18;6.90;99.90
15355;DHT22;7777;52.254;9.618;2022-12-20T00:53:46;7.00;99.90
15355;DHT22;7777;52.254;9.618;2022-12-20T00:56:12;7.00;99.90
15355;DHT22;7777;52.254;9.618;2022-12-20T00:58:39;6.90;99.90
15355;DHT22;7777;52.254;9.618;2022-12-20T01:01:15;7.00;99.90
15355;DHT22;7777;52.254;9.618;2022-12-20T01:03:41;7.00;99.90
15355;DHT22;7777;52.254;9.618;2022-12-20T01:06:08;6.90;99.90
15355;DHT22;7777;52.254;9.618;2022-12-20T01:08:34;7.00;99.90
15355;DHT22;7777;52.254;9.618;2022-12-20T01:11:04;7.00;99.90
15355;DHT22;7777;52.254;9.618;2022-12-20T01:13:32;7.00;99.90
15355;DHT22;7777;52.254;9.618;2022-12-20T01:16:05;7.00;99.90
15355;DHT22;7777;52.254;9.618;2022-12-20T01:18:35;7.00;99.90
15355;DHT22;7777;52.254;9.618;2022-12-20T01:21:07;7.00;99.90
15355;DHT22;7777;52.254;9.618;2022-12-20T01:23:34;7.00;99.90
15355;DHT22;7777;52.254;9.618;2022-12-20T01:26:01;7.00;99.90
15355;DHT22;7777;52.254;9.618;2022-12-20T01:28:30;7.00;99.90
15355;DHT22;7777;52.254;9.618;2022-12-20T01:30:56;7.10;99.90
15355;DHT22;7777;52.254;9.618;2022-12-20T01:33:23;7.10;99.90
15355;DHT22;7777;52.254;9.618;2022-12-20T01:36:00;7.20;99.90
15355;DHT22;7777;52.254;9.618;2022-12-20T01:38:27;7.20;99.90
15355;DHT22;7777;52.254;9.618;2022-12-20T01:40:54;7.30;99.90
15355;DHT22;7777;52.254;9.618;2022-12-20T01:43:22;7.30;99.90
15355;DHT22;7777;52.254;9.618;2022-12-20T01:45:49;7.40;99.90
15355;DHT22;7777;52.254;9.618;2022-12-20T01:48:24;7.40;99.90
15355;DHT22;7777;52.254;9.618;2022-12-20T01:50:51;7.50;99.90
15355;DHT22;7777;52.254;9.618;2022-12-20T01:53:20;7.50;99.90
15355;DHT22;7777;52.254;9.618;2022-12-20T01:55:47;7.50;99.90
15355;DHT22;7777;52.254;9.618;2022-12-20T01:58:15;7.60;99.90
15355;DHT22;7777;52.254;9.618;2022-12-20T02:00:43;7.60;99.90
15355;DHT22;7777;52.254;9.618;2022-12-20T02:03:11;7.70;99.90
15355;DHT22;7777;52.254;9.618;2022-12-20T02:05:40;7.70;99.90
15355;DHT22;7777;52.254;9.618;2022-12-20T02:08:10;7.70;99.90
15355;DHT22;7777;52.254;9.618;2022-12-20T02:17:12;7.80;99.90
15355;DHT22;7777;52.254;9.618;2022-12-20T02:29:05;7.80;99.90
15355;DHT22;7777;52.254;9.618;2022-12-20T02:31:39;7.80;99.90
15355;DHT22;7777;52.254;9.618;2022-12-20T02:34:09;7.80;99.90
15355;DHT22;7777;52.254;9.618;2022-12-20T02:36:35;7.80;99.90
15355;DHT22;7777;52.254;9.618;2022-12-20T02:39:01;7.80;99.90
15355;DHT22;7777;52.254;9.618;2022-12-20T02:41:34;7.80;99.90
15355;DHT22;7777;52.254;9.618;2022-12-20T02:44:09;7.80;99.90
15355;DHT22;7777;52.254;9.618;2022-12-20T02:46:59;7.90;99.90
15355;DHT22;7777;52.254;9.618;2022-12-20T02:49:34;7.90;99.90
15355;DHT22;7777;52.254;9.618;2022-12-20T02:52:04;7.90;99.90
15355;DHT22;7777;52.254;9.618;2022-12-20T02:54:31;7.90;99.90
15355;DHT22;7777;52.254;9.618;2022-12-20T02:57:21;7.90;99.90
15355;DHT22;7777;52.254;9.618;2022-12-20T02:59:59;7.90;99.90
15355;DHT22;7777;52.254;9.618;2022-12-20T03:02:30;8.00;99.90
15355;DHT22;7777;52.254;9.618;2022-12-20T03:05:16;8.00;99.90
15355;DHT22;7777;52.254;9.618;2022-12-20T03:07:42;8.00;99.90
15355;DHT22;7777;52.254;9.618;2022-12-20T03:10:08;8.00;99.90
15355;DHT22;7777;52.254;9.618;2022-12-20T03:12:35;8.00;99.90
15355;DHT22;7777;52.254;9.618;2022-12-20T03:15:00;8.00;99.90
15355;DHT22;7777;52.254;9.618;2022-12-20T03:17:26;8.00;99.90
15355;DHT22;7777;52.254;9.618;2022-12-20T03:19:52;8.00;99.90
15355;DHT22;7777;52.254;9.618;2022-12-20T03:22:17;8.00;99.90
15355;DHT22;7777;52.254;9.618;2022-12-20T03:24:43;8.00;99.90
15355;DHT22;7777;52.254;9.618;2022-12-20T03:27:09;8.00;99.90
15355;DHT22;7777;52.254;9.618;2022-12-20T03:29:35;8.00;99.90
15355;DHT22;7777;52.254;9.618;2022-12-20T03:32:01;8.00;99.90
15355;DHT22;7777;52.254;9.618;2022-12-20T03:34:26;8.00;99.90
15355;DHT22;7777;52.254;9.618;2022-12-20T03:36:52;7.90;99.90
15355;DHT22;7777;52.254;9.618;2022-12-20T03:39:18;8.00;99.90
15355;DHT22;7777;52.254;9.618;2022-12-20T03:41:44;8.00;99.90
15355;DHT22;7777;52.254;9.618;2022-12-20T03:44:09;7.90;99.90
15355;DHT22;7777;52.254;9.618;2022-12-20T03:46:35;7.90;99.90
15355;DHT22;7777;52.254;9.618;2022-12-20T03:49:01;7.90;99.90
15355;DHT22;7777;52.254;9.618;2022-12-20T03:51:26;7.90;99.90
15355;DHT22;7777;52.254;9.618;2022-12-20T03:53:52;7.80;99.90
15355;DHT22;7777;52.254;9.618;2022-12-20T03:56:18;7.80;99.90
15355;DHT22;7777;52.254;9.618;2022-12-20T03:58:43;7.80;99.90
15355;DHT22;7777;52.254;9.618;2022-12-20T04:01:24;7.80;99.90
15355;DHT22;7777;52.254;9.618;2022-12-20T04:03:51;7.80;99.90
15355;DHT22;7777;52.254;9.618;2022-12-20T04:06:17;7.80;99.90
15355;DHT22;7777;52.254;9.618;2022-12-20T04:08:43;7.80;99.90
15355;DHT22;7777;52.254;9.618;2022-12-20T04:11:10;7.80;99.90
15355;DHT22;7777;52.254;9.618;2022-12-20T04:16:18;7.80;99.90
15355;DHT22;7777;52.254;9.618;2022-12-20T04:18:45;7.80;99.90
15355;DHT22;7777;52.254;9.618;2022-12-20T04:21:11;7.70;99.90
15355;DHT22;7777;52.254;9.618;2022-12-20T04:23:39;7.70;99.90
15355;DHT22;7777;52.254;9.618;2022-12-20T04:26:07;7.70;99.90
15355;DHT22;7777;52.254;9.618;2022-12-20T04:28:34;7.70;99.90
15355;DHT22;7777;52.254;9.618;2022-12-20T04:31:00;7.80;99.90
15355;DHT22;7777;52.254;9.618;2022-12-20T04:33:27;7.80;99.90
15355;DHT22;7777;52.254;9.618;2022-12-20T04:35:53;7.80;99.90
15355;DHT22;7777;52.254;9.618;2022-12-20T04:38:20;7.80;99.90
15355;DHT22;7777;52.254;9.618;2022-12-20T04:40:51;7.80;99.90
15355;DHT22;7777;52.254;9.618;2022-12-20T04:43:18;7.90;99.90
15355;DHT22;7777;52.254;9.618;2022-12-20T04:45:46;7.90;99.90
15355;DHT22;7777;52.254;9.618;2022-12-20T04:48:13;7.90;99.90
15355;DHT22;7777;52.254;9.618;2022-12-20T04:50:38;7.90;99.90
15355;DHT22;7777;52.254;9.618;2022-12-20T04:53:04;8.00;99.90
15355;DHT22;7777;52.254;9.618;2022-12-20T04:55:49;8.00;99.90
15355;DHT22;7777;52.254;9.618;2022-12-20T04:58:14;8.00;99.90
15355;DHT22;7777;52.254;9.618;2022-12-20T05:00:41;8.00;99.90
15355;DHT22;7777;52.254;9.618;2022-12-20T05:03:06;8.00;99.90
15355;DHT22;7777;52.254;9.618;2022-12-20T05:05:32;8.10;99.90
15355;DHT22;7777;52.254;9.618;2022-12-20T05:07:58;8.10;99.90
15355;DHT22;7777;52.254;9.618;2022-12-20T05:10:24;8.10;99.90
15355;DHT22;7777;52.254;9.618;2022-12-20T05:12:50;8.10;99.90
15355;DHT22;7777;52.254;9.618;2022-12-20T05:15:16;8.20;99.90
15355;DHT22;7777;52.254;9.618;2022-12-20T05:17:42;8.20;99.90
15355;DHT22;7777;52.254;9.618;2022-12-20T05:20:08;8.20;99.90
15355;DHT22;7777;52.254;9.618;2022-12-20T05:22:34;8.20;99.90
15355;DHT22;7777;52.254;9.618;2022-12-20T05:25:18;8.30;99.90
15355;DHT22;7777;52.254;9.618;2022-12-20T05:28:04;8.30;99.90
15355;DHT22;7777;52.254;9.618;2022-12-20T05:30:31;8.30;99.90
15355;DHT22;7777;52.254;9.618;2022-12-20T05:32:57;8.30;99.90
15355;DHT22;7777;52.254;9.618;2022-12-20T05:35:23;8.30;99.90
15355;DHT22;7777;52.254;9.618;2022-12-20T05:37:49;8.30;99.90
15355;DHT22;7777;52.254;9.618;2022-12-20T05:40:14;8.30;99.90
15355;DHT22;7777;52.254;9.618;2022-12-20T05:42:40;8.30;99.90
15355;DHT22;7777;52.254;9.618;2022-12-20T05:45:06;8.30;99.90
15355;DHT22;7777;52.254;9.618;2022-12-20T05:47:32;8.30;99.90
15355;DHT22;7777;52.254;9.618;2022-12-20T05:50:02;8.20;99.90
15355;DHT22;7777;52.254;9.618;2022-12-20T05:52:28;8.20;99.90
15355;DHT22;7777;52.254;9.618;2022-12-20T05:54:54;8.20;99.90
15355;DHT22;7777;52.254;9.618;2022-12-20T05:57:20;8.20;99.90
15355;DHT22;7777;52.254;9.618;2022-12-20T05:59:46;8.20;99.90
15355;DHT22;7777;52.254;9.618;2022-12-20T06:02:12;8.20;99.90
15355;DHT22;7777;52.254;9.618;2022-12-20T06:04:39;8.20;99.90
15355;DHT22;7777;52.254;9.618;2022-12-20T06:07:05;8.20;99.90
15355;DHT22;7777;52.254;9.618;2022-12-20T06:09:31;8.10;99.90
15355;DHT22;7777;52.254;9.618;2022-12-20T06:11:58;8.10;99.90
15355;DHT22;7777;52.254;9.618;2022-12-20T06:14:23;8.10;99.90
15355;DHT22;7777;52.254;9.618;2022-12-20T06:16:49;8.10;99.90
15355;DHT22;7777;52.254;9.618;2022-12-20T06:19:16;8.10;99.90
15355;DHT22;7777;52.254;9.618;2022-12-20T06:21:41;8.10;99.90
15355;DHT22;7777;52.254;9.618;2022-12-20T06:24:07;8.10;99.90
15355;DHT22;7777;52.254;9.618;2022-12-20T06:26:33;8.10;99.90
15355;DHT22;7777;52.254;9.618;2022-12-20T06:29:03;8.10;99.90
15355;DHT22;7777;52.254;9.618;2022-12-20T06:31:32;8.10;99.90
15355;DHT22;7777;52.254;9.618;2022-12-20T06:33:58;8.10;99.90
15355;DHT22;7777;52.254;9.618;2022-12-20T06:36:24;8.10;99.90
15355;DHT22;7777;52.254;9.618;2022-12-20T06:38:49;8.20;99.90
15355;DHT22;7777;52.254;9.618;2022-12-20T06:41:15;8.20;99.90
15355;DHT22;7777;52.254;9.618;2022-12-20T06:43:41;8.20;99.90
15355;DHT22;7777;52.254;9.618;2022-12-20T06:46:07;8.20;99.90
15355;DHT22;7777;52.254;9.618;2022-12-20T06:48:32;8.30;99.90
15355;DHT22;7777;52.254;9.618;2022-12-20T06:50:58;8.30;99.90
15355;DHT22;7777;52.254;9.618;2022-12-20T06:53:24;8.30;99.90
15355;DHT22;7777;52.254;9.618;2022-12-20T06:55:50;8.30;99.90
15355;DHT22;7777;52.254;9.618;2022-12-20T06:58:17;8.40;99.90
15355;DHT22;7777;52.254;9.618;2022-12-20T07:00:43;8.40;99.90
15355;DHT22;7777;52.254;9.618;2022-12-20T07:03:08;8.40;99.90
15355;DHT22;7777;52.254;9.618;2022-12-20T07:05:34;8.50;99.90
15355;DHT22;7777;52.254;9.618;2022-12-20T07:08:00;8.50;99.90
15355;DHT22;7777;52.254;9.618;2022-12-20T07:10:29;8.50;99.90
15355;DHT22;7777;52.254;9.618;2022-12-20T07:12:55;8.60;99.90
15355;DHT22;7777;52.254;9.618;2022-12-20T07:15:21;8.60;99.90
15355;DHT22;7777;52.254;9.618;2022-12-20T07:17:47;8.60;99.90
15355;DHT22;7777;52.254;9.618;2022-12-20T07:20:14;8.60;99.90
15355;DHT22;7777;52.254;9.618;2022-12-20T07:22:41;8.60;99.90
15355;DHT22;7777;52.254;9.618;2022-12-20T07:25:07;8.60;99.90
15355;DHT22;7777;52.254;9.618;2022-12-20T07:27:33;8.60;99.90
15355;DHT22;7777;52.254;9.618;2022-12-20T07:29:58;8.70;99.90
15355;DHT22;7777;52.254;9.618;2022-12-20T07:32:24;8.70;99.90
15355;DHT22;7777;52.254;9.618;2022-12-20T07:34:50;8.70;99.90
15355;DHT22;7777;52.254;9.618;2022-12-20T07:37:16;8.70;99.90
15355;DHT22;7777;52.254;9.618;2022-12-20T07:39:41;8.70;99.90
15355;DHT22;7777;52.254;9.618;2022-12-20T07:42:07;8.70;99.90
15355;DHT22;7777;52.254;9.618;2022-12-20T07:44:34;8.70;99.90
15355;DHT22;7777;52.254;9.618;2022-12-20T07:46:59;8.70;99.90
15355;DHT22;7777;52.254;9.618;2022-12-20T07:49:25;8.70;99.90
15355;DHT22;7777;52.254;9.618;2022-12-20T07:51:55;8.70;99.90
15355;DHT22;7777;52.254;9.618;2022-12-20T07:54:26;8.70;99.90
15355;DHT22;7777;52.254;9.618;2022-12-20T07:57:00;8.70;99.90
15355;DHT22;7777;52.254;9.618;2022-12-20T07:59:37;8.80;99.90
15355;DHT22;7777;52.254;9.618;2022-12-20T08:02:07;8.80;99.90
15355;DHT22;7777;52.254;9.618;2022-12-20T08:04:36;8.80;99.90
15355;DHT22;7777;52.254;9.618;2022-12-20T08:07:02;8.80;99.90
15355;DHT22;7777;52.254;9.618;2022-12-20T08:09:30;8.80;99.90
15355;DHT22;7777;52.254;9.618;2022-12-20T08:12:01;8.80;99.90
15355;DHT22;7777;52.254;9.618;2022-12-20T08:14:26;8.80;99.90
15355;DHT22;7777;52.254;9.618;2022-12-20T08:16:52;8.90;99.90
15355;DHT22;7777;52.254;9.618;2022-12-20T08:19:18;8.90;99.90
15355;DHT22;7777;52.254;9.618;2022-12-20T08:21:44;8.90;99.90
15355;DHT22;7777;52.254;9.618;2022-12-20T08:24:09;8.90;99.90
15355;DHT22;7777;52.254;9.618;2022-12-20T08:26:38;8.90;99.90
15355;DHT22;7777;52.254;9.618;2022-12-20T08:29:04;9.00;99.90
15355;DHT22;7777;52.254;9.618;2022-12-20T08:31:30;9.00;99.90
15355;DHT22;7777;52.254;9.618;2022-12-20T08:33:56;9.00;99.90
15355;DHT22;7777;52.254;9.618;2022-12-20T08:36:22;9.00;99.90
15355;DHT22;7777;52.254;9.618;2022-12-20T08:38:48;9.10;99.90
15355;DHT22;7777;52.254;9.618;2022-12-20T08:41:14;9.10;99.90
15355;DHT22;7777;52.254;9.618;2022-12-20T08:43:41;9.10;99.90
15355;DHT22;7777;52.254;9.618;2022-12-20T08:46:09;9.10;99.90
15355;DHT22;7777;52.254;9.618;2022-12-20T08:48:36;9.10;99.90
15355;DHT22;7777;52.254;9.618;2022-12-20T08:51:05;9.20;99.90
15355;DHT22;7777;52.254;9.618;2022-12-20T08:53:33;9.20;99.90
15355;DHT22;7777;52.254;9.618;2022-12-20T08:56:11;9.20;99.90
15355;DHT22;7777;52.254;9.618;2022-12-20T08:58:39;9.20;99.90
15355;DHT22;7777;52.254;9.618;2022-12-20T09:01:08;9.30;99.90
15355;DHT22;7777;52.254;9.618;2022-12-20T09:03:37;9.30;99.90
15355;DHT22;7777;52.254;9.618;2022-12-20T09:06:22;9.30;99.90
15355;DHT22;7777;52.254;9.618;2022-12-20T09:08:49;9.40;99.90
15355;DHT22;7777;52.254;9.618;2022-12-20T09:11:17;9.40;99.90
15355;DHT22;7777;52.254;9.618;2022-12-20T09:13:47;9.40;99.90
15355;DHT22;7777;52.254;9.618;2022-12-20T09:16:16;9.40;99.90
15355;DHT22;7777;52.254;9.618;2022-12-20T09:18:46;9.40;99.90
15355;DHT22;7777;52.254;9.618;2022-12-20T09:21:16;9.40;99.90
15355;DHT22;7777;52.254;9.618;2022-12-20T09:23:43;9.50;99.90
15355;DHT22;7777;52.254;9.618;2022-12-20T09:26:14;9.50;99.90
15355;DHT22;7777;52.254;9.618;2022-12-20T09:28:41;9.50;99.90
15355;DHT22;7777;52.254;9.618;2022-12-20T09:31:12;9.50;99.90
15355;DHT22;7777;52.254;9.618;2022-12-20T09:33:39;9.50;99.90
15355;DHT22;7777;52.254;9.618;2022-12-20T09:36:06;9.60;99.90
15355;DHT22;7777;52.254;9.618;2022-12-20T09:38:32;9.60;99.90
15355;DHT22;7777;52.254;9.618;2022-12-20T09:41:02;9.60;99.90
15355;DHT22;7777;52.254;9.618;2022-12-20T09:43:31;9.60;99.90
15355;DHT22;7777;52.254;9.618;2022-12-20T09:45:59;9.70;99.90
15355;DHT22;7777;52.254;9.618;2022-12-20T09:48:37;9.70;99.90
15355;DHT22;7777;52.254;9.618;2022-12-20T09:53:50;9.70;99.90
15355;DHT22;7777;52.254;9.618;2022-12-20T09:56:34;9.70;99.90
15355;DHT22;7777;52.254;9.618;2022-12-20T09:59:05;9.80;99.90
15355;DHT22;7777;52.254;9.618;2022-12-20T10:01:34;9.80;99.90
15355;DHT22;7777;52.254;9.618;2022-12-20T10:04:04;9.80;99.90
15355;DHT22;7777;52.254;9.618;2022-12-20T10:06:38;9.90;99.90
15355;DHT22;7777;52.254;9.618;2022-12-20T10:12:45;9.90;99.90
15355;DHT22;7777;52.254;9.618;2022-12-20T10:15:19;10.00;99.90
15355;DHT22;7777;52.254;9.618;2022-12-20T10:18:31;10.00;99.90
15355;DHT22;7777;52.254;9.618;2022-12-20T10:21:29;10.10;99.90
15355;DHT22;7777;52.254;9.618;2022-12-20T10:24:24;10.10;99.90
15355;DHT22;7777;52.254;9.618;2022-12-20T10:26:52;10.20;99.90
15355;DHT22;7777;52.254;9.618;2022-12-20T10:29:19;10.20;99.90
15355;DHT22;7777;52.254;9.618;2022-12-20T10:31:48;10.20;99.90
15355;DHT22;7777;52.254;9.618;2022-12-20T10:34:16;10.20;99.90
15355;DHT22;7777;52.254;9.618;2022-12-20T10:36:41;10.30;99.90
15355;DHT22;7777;52.254;9.618;2022-12-20T10:39:08;10.30;99.90
15355;DHT22;7777;52.254;9.618;2022-12-20T10:44:26;10.40;99.90
15355;DHT22;7777;52.254;9.618;2022-12-20T10:46:58;10.50;99.90
15355;DHT22;7777;52.254;9.618;2022-12-20T10:49:36;10.50;99.90
15355;DHT22;7777;52.254;9.618;2022-12-20T10:54:36;10.60;99.90
15355;DHT22;7777;52.254;9.618;2022-12-20T10:57:22;10.60;99.90
15355;DHT22;7777;52.254;9.618;2022-12-20T10:59:57;10.60;99.90
15355;DHT22;7777;52.254;9.618;2022-12-20T11:02:37;10.60;99.90
15355;DHT22;7777;52.254;9.618;2022-12-20T11:07:37;10.70;99.90
15355;DHT22;7777;52.254;9.618;2022-12-20T11:10:25;10.80;99.90
15355;DHT22;7777;52.254;9.618;2022-12-20T11:13:02;10.80;99.90
15355;DHT22;7777;52.254;9.618;2022-12-20T11:15:31;10.80;99.90
15355;DHT22;7777;52.254;9.618;2022-12-20T11:18:14;10.90;99.90
15355;DHT22;7777;52.254;9.618;2022-12-20T11:24:18;11.00;99.90
15355;DHT22;7777;52.254;9.618;2022-12-20T11:30:07;11.00;99.90
15355;DHT22;7777;52.254;9.618;2022-12-20T11:36:09;11.10;99.90
15355;DHT22;7777;52.254;9.618;2022-12-20T11:38:57;11.10;99.90
15355;DHT22;7777;52.254;9.618;2022-12-20T11:53:01;11.10;99.90
15355;DHT22;7777;52.254;9.618;2022-12-20T11:55:35;11.10;99.90
15355;DHT22;7777;52.254;9.618;2022-12-20T11:58:15;11.10;99.90
15355;DHT22;7777;52.254;9.618;2022-12-20T12:01:09;11.10;99.90
15355;DHT22;7777;52.254;9.618;2022-12-20T12:03:45;11.10;99.90
15355;DHT22;7777;52.254;9.618;2022-12-20T12:06:26;11.10;99.90
15355;DHT22;7777;52.254;9.618;2022-12-20T12:09:03;11.10;99.90
15355;DHT22;7777;52.254;9.618;2022-12-20T12:11:38;11.10;99.90
15355;DHT22;7777;52.254;9.618;2022-12-20T12:14:15;11.10;99.90
15355;DHT22;7777;52.254;9.618;2022-12-20T12:16:46;11.10;99.90
15355;DHT22;7777;52.254;9.618;2022-12-20T12:19:15;11.10;99.90
15355;DHT22;7777;52.254;9.618;2022-12-20T12:21:49;11.10;99.90
15355;DHT22;7777;52.254;9.618;2022-12-20T12:24:32;11.10;99.90
15355;DHT22;7777;52.254;9.618;2022-12-20T12:27:00;11.20;99.90
15355;DHT22;7777;52.254;9.618;2022-12-20T12:29:28;11.20;99.90
15355;DHT22;7777;52.254;9.618;2022-12-20T12:34:51;11.20;99.90
15355;DHT22;7777;52.254;9.618;2022-12-20T12:40:21;11.30;99.90
15355;DHT22;7777;52.254;9.618;2022-12-20T12:46:02;11.30;99.90
15355;DHT22;7777;52.254;9.618;2022-12-20T12:51:35;11.30;99.90
15355;DHT22;7777;52.254;9.618;2022-12-20T12:57:00;11.30;99.90
15355;DHT22;7777;52.254;9.618;2022-12-20T13:10:04;11.30;99.90
15355;DHT22;7777;52.254;9.618;2022-12-20T13:12:57;11.30;99.90
15355;DHT22;7777;52.254;9.618;2022-12-20T13:17:55;11.30;99.90
15355;DHT22;7777;52.254;9.618;2022-12-20T13:20:30;11.30;99.90
15355;DHT22;7777;52.254;9.618;2022-12-20T13:23:18;11.30;99.90
15355;DHT22;7777;52.254;9.618;2022-12-20T13:25:49;11.30;99.90
15355;DHT22;7777;52.254;9.618;2022-12-20T13:33:48;11.30;99.90
15355;DHT22;7777;52.254;9.618;2022-12-20T13:41:30;11.20;99.90
15355;DHT22;7777;52.254;9.618;2022-12-20T13:44:23;11.20;99.90
15355;DHT22;7777;52.254;9.618;2022-12-20T13:47:36;11.20;99.90
15355;DHT22;7777;52.254;9.618;2022-12-20T13:50:25;11.20;99.90
15355;DHT22;7777;52.254;9.618;2022-12-20T13:52:56;11.20;99.90
15355;DHT22;7777;52.254;9.618;2022-12-20T13:55:34;11.20;99.90
15355;DHT22;7777;52.254;9.618;2022-12-20T13:58:21;11.10;99.90
15355;DHT22;7777;52.254;9.618;2022-12-20T14:01:24;11.10;99.90
15355;DHT22;7777;52.254;9.618;2022-12-20T14:03:51;11.10;99.90
15355;DHT22;7777;52.254;9.618;2022-12-20T14:06:19;11.10;99.90
15355;DHT22;7777;52.254;9.618;2022-12-20T14:08:50;11.00;99.90
15355;DHT22;7777;52.254;9.618;2022-12-20T14:11:24;11.00;99.90
15355;DHT22;7777;52.254;9.618;2022-12-20T14:14:03;11.00;99.90
15355;DHT22;7777;52.254;9.618;2022-12-20T14:16:30;11.00;99.90
15355;DHT22;7777;52.254;9.618;2022-12-20T14:19:06;11.00;99.90
15355;DHT22;7777;52.254;9.618;2022-12-20T14:21:42;11.00;99.90
15355;DHT22;7777;52.254;9.618;2022-12-20T14:24:28;10.90;99.90
15355;DHT22;7777;52.254;9.618;2022-12-20T14:26:53;10.90;99.90
15355;DHT22;7777;52.254;9.618;2022-12-20T14:29:28;10.90;99.90
15355;DHT22;7777;52.254;9.618;2022-12-20T14:31:54;10.90;99.90
15355;DHT22;7777;52.254;9.618;2022-12-20T14:34:29;10.90;99.90
15355;DHT22;7777;52.254;9.618;2022-12-20T14:37:31;10.90;99.90
15355;DHT22;7777;52.254;9.618;2022-12-20T14:42:38;10.80;99.90
15355;DHT22;7777;52.254;9.618;2022-12-20T14:48:03;10.80;99.90
15355;DHT22;7777;52.254;9.618;2022-12-20T14:50:33;10.80;99.90
15355;DHT22;7777;52.254;9.618;2022-12-20T14:53:17;10.80;99.90
15355;DHT22;7777;52.254;9.618;2022-12-20T14:55:46;10.70;99.90
15355;DHT22;7777;52.254;9.618;2022-12-20T15:01:00;10.70;99.90
15355;DHT22;7777;52.254;9.618;2022-12-20T15:03:51;10.70;99.90
15355;DHT22;7777;52.254;9.618;2022-12-20T15:06:42;10.70;99.90
15355;DHT22;7777;52.254;9.618;2022-12-20T15:09:09;10.70;99.90
15355;DHT22;7777;52.254;9.618;2022-12-20T15:11:36;10.70;99.90
15355;DHT22;7777;52.254;9.618;2022-12-20T15:17:12;10.60;99.90
15355;DHT22;7777;52.254;9.618;2022-12-20T15:19:42;10.60;99.90
15355;DHT22;7777;52.254;9.618;2022-12-20T15:22:18;10.60;99.90
15355;DHT22;7777;52.254;9.618;2022-12-20T15:24:44;10.60;99.90
15355;DHT22;7777;52.254;9.618;2022-12-20T15:27:14;10.60;99.90
15355;DHT22;7777;52.254;9.618;2022-12-20T15:29:40;10.50;99.90
15355;DHT22;7777;52.254;9.618;2022-12-20T15:32:18;10.50;99.90
15355;DHT22;7777;52.254;9.618;2022-12-20T15:34:48;10.50;99.90
15355;DHT22;7777;52.254;9.618;2022-12-20T15:37:15;10.50;99.90
15355;DHT22;7777;52.254;9.618;2022-12-20T15:39:41;10.50;99.90
15355;DHT22;7777;52.254;9.618;2022-12-20T15:42:13;10.50;99.90
15355;DHT22;7777;52.254;9.618;2022-12-20T15:44:41;10.50;99.90
15355;DHT22;7777;52.254;9.618;2022-12-20T15:47:15;10.50;99.90
15355;DHT22;7777;52.254;9.618;2022-12-20T15:49:41;10.50;99.90
15355;DHT22;7777;52.254;9.618;2022-12-20T15:52:21;10.50;99.90
15355;DHT22;7777;52.254;9.618;2022-12-20T15:54:48;10.50;99.90
15355;DHT22;7777;52.254;9.618;2022-12-20T15:57:14;10.50;99.90
15355;DHT22;7777;52.254;9.618;2022-12-20T15:59:40;10.50;99.90
15355;DHT22;7777;52.254;9.618;2022-12-20T16:02:21;10.50;99.90
15355;DHT22;7777;52.254;9.618;2022-12-20T16:04:47;10.50;99.90
15355;DHT22;7777;52.254;9.618;2022-12-20T16:07:13;10.50;99.90
15355;DHT22;7777;52.254;9.618;2022-12-20T16:09:39;10.50;99.90
15355;DHT22;7777;52.254;9.618;2022-12-20T16:12:22;10.50;99.90
15355;DHT22;7777;52.254;9.618;2022-12-20T16:14:53;10.50;99.90
15355;DHT22;7777;52.254;9.618;2022-12-20T16:17:19;10.50;99.90
15355;DHT22;7777;52.254;9.618;2022-12-20T16:19:46;10.50;99.90
15355;DHT22;7777;52.254;9.618;2022-12-20T16:22:17;10.50;99.90
15355;DHT22;7777;52.254;9.618;2022-12-20T16:24:45;10.50;99.90
15355;DHT22;7777;52.254;9.618;2022-12-20T16:27:11;10.40;99.90
15355;DHT22;7777;52.254;9.618;2022-12-20T16:29:37;10.40;99.90
15355;DHT22;7777;52.254;9.618;2022-12-20T16:32:02;10.40;99.90
15355;DHT22;7777;52.254;9.618;2022-12-20T16:34:38;10.40;99.90
15355;DHT22;7777;52.254;9.618;2022-12-20T16:37:04;10.40;99.90
15355;DHT22;7777;52.254;9.618;2022-12-20T16:39:30;10.40;99.90
15355;DHT22;7777;52.254;9.618;2022-12-20T16:41:56;10.40;99.90
15355;DHT22;7777;52.254;9.618;2022-12-20T16:44:22;10.40;99.90
15355;DHT22;7777;52.254;9.618;2022-12-20T16:46:47;10.40;99.90
15355;DHT22;7777;52.254;9.618;2022-12-20T16:49:16;10.40;99.90
15355;DHT22;7777;52.254;9.618;2022-12-20T16:51:46;10.30;99.90
15355;DHT22;7777;52.254;9.618;2022-12-20T16:54:19;10.30;99.90
15355;DHT22;7777;52.254;9.618;2022-12-20T16:56:50;10.30;99.90
15355;DHT22;7777;52.254;9.618;2022-12-20T16:59:20;10.30;99.90
15355;DHT22;7777;52.254;9.618;2022-12-20T17:01:48;10.20;99.90
15355;DHT22;7777;52.254;9.618;2022-12-20T17:04:16;10.20;99.90
15355;DHT22;7777;52.254;9.618;2022-12-20T17:06:44;10.20;99.90
15355;DHT22;7777;52.254;9.618;2022-12-20T17:09:10;10.20;99.90
15355;DHT22;7777;52.254;9.618;2022-12-20T17:11:36;10.10;99.90
15355;DHT22;7777;52.254;9.618;2022-12-20T17:14:03;10.10;99.90
15355;DHT22;7777;52.254;9.618;2022-12-20T17:16:29;10.10;99.90
15355;DHT22;7777;52.254;9.618;2022-12-20T17:18:55;10.10;99.90
15355;DHT22;7777;52.254;9.618;2022-12-20T17:24:08;10.10;99.90
15355;DHT22;7777;52.254;9.618;2022-12-20T17:26:41;10.00;99.90
15355;DHT22;7777;52.254;9.618;2022-12-20T17:29:08;10.00;99.90
15355;DHT22;7777;52.254;9.618;2022-12-20T17:31:36;10.00;99.90
15355;DHT22;7777;52.254;9.618;2022-12-20T17:34:05;10.00;99.90
15355;DHT22;7777;52.254;9.618;2022-12-20T17:36:43;10.00;99.90
15355;DHT22;7777;52.254;9.618;2022-12-20T17:39:09;9.90;99.90
15355;DHT22;7777;52.254;9.618;2022-12-20T17:41:35;9.90;99.90
15355;DHT22;7777;52.254;9.618;2022-12-20T17:44:02;9.90;99.90
15355;DHT22;7777;52.254;9.618;2022-12-20T17:46:29;9.90;99.90
15355;DHT22;7777;52.254;9.618;2022-12-20T17:48:55;9.90;99.90
15355;DHT22;7777;52.254;9.618;2022-12-20T17:51:26;9.90;99.90
15355;DHT22;7777;52.254;9.618;2022-12-20T17:53:55;9.80;99.90
15355;DHT22;7777;52.254;9.618;2022-12-20T17:56:25;9.90;99.90
15355;DHT22;7777;52.254;9.618;2022-12-20T17:58:53;9.80;99.90